Time;durP1;ratioP1;P1;durP2;ratioP2;P2;SDS_P1;SDS_P2;PMS_P1;PMS_P2;Temp;Humidity;BMP_temperature;BMP_pressure;BME280_temperature;BME280_humidity;BME280_pressure;Samples;Min_cycle;Max_cycle;Signal;HPM_P1;HPM_P2
2021/05/18 00:00:23;;;;;;;2.05;0.65;;;;;;;6.24;94.81;92760.78;2102756;28;20054;-84
2021/05/18 00:01:24;;;;;;;3.53;0.65;;;;;;;6.14;96.21;92765.03;2107507;28;20020;-84
2021/05/18 00:02:24;;;;;;;1.05;0.60;;;;;;;6.10;96.95;92768.88;2114974;28;20056;-85
2021/05/18 00:03:25;;;;;;;2.58;0.60;;;;;;;6.06;96.84;92768.94;2106501;28;20072;-83
2021/05/18 00:04:26;;;;;;;2.20;0.60;;;;;;;5.99;97.62;92761.03;2108746;28;20456;-84
2021/05/18 00:05:27;;;;;;;2.50;0.88;;;;;;;5.92;97.98;92766.41;2110628;28;20161;-83
2021/05/18 00:06:28;;;;;;;3.38;0.60;;;;;;;5.86;97.81;92765.31;2106863;28;20028;-83
2021/05/18 00:07:29;;;;;;;2.17;0.60;;;;;;;5.83;98.30;92764.19;2110418;28;20055;-83
2021/05/18 00:08:32;;;;;;;3.15;0.75;;;;;;;5.90;96.99;92771.34;2117852;27;20020;-82
2021/05/18 00:12:18;;;;;;;2.28;0.60;;;;;;;5.99;97.91;92766.34;2120884;27;20369;-83
2021/05/18 00:13:20;;;;;;;1.02;0.60;;;;;;;6.25;94.47;92773.66;2110192;28;20030;-83
2021/05/18 00:14:24;;;;;;;2.60;0.55;;;;;;;6.25;93.61;92764.94;2111213;27;20060;-83
2021/05/18 00:15:24;;;;;;;2.58;0.60;;;;;;;6.21;93.73;92762.31;2114447;27;20020;-82
2021/05/18 00:16:25;;;;;;;3.05;0.60;;;;;;;6.21;94.63;92764.97;2123481;27;20491;-82
2021/05/18 00:17:27;;;;;;;0.88;0.50;;;;;;;6.13;95.73;92766.19;2123697;27;20082;-83
2021/05/18 00:18:28;;;;;;;1.15;0.45;;;;;;;6.05;94.31;92762.09;2109638;28;20115;-83
2021/05/18 00:19:30;;;;;;;4.90;0.60;;;;;;;6.15;93.50;92752.53;2112522;28;20019;-82
2021/05/18 00:20:30;;;;;;;0.57;0.40;;;;;;;6.09;94.14;92757.50;2102773;28;20040;-83
2021/05/18 00:21:31;;;;;;;1.42;0.60;;;;;;;6.14;92.90;92764.28;2104888;28;20114;-83
2021/05/18 00:22:32;;;;;;;0.93;0.60;;;;;;;6.04;94.39;92766.66;2104464;28;20259;-84
2021/05/18 00:23:34;;;;;;;0.60;0.60;;;;;;;5.97;95.19;92756.13;2107035;28;20125;-82
2021/05/18 00:24:35;;;;;;;0.70;0.70;;;;;;;5.97;94.60;92756.13;2105638;28;20362;-83
2021/05/18 00:25:36;;;;;;;0.52;0.43;;;;;;;5.92;95.44;92751.25;2109817;28;20034;-85
2021/05/18 00:26:37;;;;;;;1.92;0.63;;;;;;;6.03;93.90;92753.78;2121912;27;20070;-84
2021/05/18 00:27:38;;;;;;;2.28;0.50;;;;;;;6.11;92.91;92757.13;2112098;28;20349;-84
2021/05/18 00:28:39;;;;;;;1.40;0.70;;;;;;;6.02;93.50;92757.59;2105763;28;20031;-83
2021/05/18 00:29:40;;;;;;;1.00;0.50;;;;;;;5.99;93.77;92755.72;2106661;28;20031;-84
2021/05/18 00:30:41;;;;;;;1.73;0.60;;;;;;;5.86;94.82;92757.34;2114927;27;20114;-84
2021/05/18 00:31:41;;;;;;;1.58;0.70;;;;;;;5.91;95.01;92756.91;2100456;28;20703;-84
2021/05/18 00:32:42;;;;;;;1.88;0.50;;;;;;;5.82;95.46;92750.19;2090099;28;20029;-84
2021/05/18 00:33:43;;;;;;;0.57;0.55;;;;;;;5.93;94.18;92754.66;2101021;28;20036;-83
2021/05/18 00:34:44;;;;;;;2.30;0.68;;;;;;;5.95;94.26;92750.47;2101415;28;20033;-84
2021/05/18 00:35:46;;;;;;;1.00;0.60;;;;;;;5.93;94.53;92746.72;2115106;28;20107;-84
2021/05/18 00:36:46;;;;;;;0.60;0.50;;;;;;;5.90;96.11;92747.47;2112562;28;20023;-83
2021/05/18 00:37:47;;;;;;;1.85;0.55;;;;;;;5.98;94.42;92752.34;2098853;28;20745;-85
2021/05/18 00:38:48;;;;;;;1.80;0.60;;;;;;;5.98;93.85;92746.28;2106311;28;20074;-84
2021/05/18 00:39:49;;;;;;;1.75;0.52;;;;;;;5.91;96.51;92747.06;2119762;27;20027;-83
2021/05/18 00:40:51;;;;;;;4.82;0.60;;;;;;;5.87;96.17;92748.25;2120230;27;20030;-83
2021/05/18 00:41:52;;;;;;;1.73;0.60;;;;;;;5.80;95.96;92749.09;2102618;28;20048;-83
2021/05/18 00:42:54;;;;;;;1.98;0.75;;;;;;;5.68;96.84;92749.56;2095844;28;20032;-83
2021/05/18 00:43:55;;;;;;;0.40;0.40;;;;;;;5.69;96.35;92751.81;2114783;28;20026;-84
2021/05/18 00:44:56;;;;;;;1.67;0.65;;;;;;;5.61;96.78;92760.22;2112187;28;20016;-82
2021/05/18 00:45:57;;;;;;;2.17;0.60;;;;;;;5.53;96.28;92757.66;2103075;28;20626;-84
2021/05/18 00:46:58;;;;;;;1.08;0.95;;;;;;;5.51;98.12;92759.94;2101236;28;20016;-84
2021/05/18 00:47:59;;;;;;;0.98;0.50;;;;;;;5.47;97.65;92755.81;2105224;28;20024;-83
2021/05/18 00:49:00;;;;;;;2.05;0.60;;;;;;;5.47;98.31;92755.81;2099327;28;20032;-83
2021/05/18 00:50:01;;;;;;;0.75;0.52;;;;;;;5.49;98.55;92753.53;2115543;27;20098;-82
2021/05/18 00:51:10;;;;;;;1.63;0.60;;;;;;;5.43;98.88;92752.44;2106236;28;20150;-83
2021/05/18 00:52:12;;;;;;;1.35;0.73;;;;;;;5.42;98.19;92759.63;2101613;28;20028;-83
2021/05/18 00:53:13;;;;;;;2.35;0.70;;;;;;;5.42;99.23;92759.63;2100523;28;20020;-84
2021/05/18 00:54:24;;;;;;;0.95;0.60;;;;;;;5.47;100.00;92758.47;2099922;28;20033;-83
2021/05/18 00:58:55;;;;;;;;;;;;;;;5.50;96.83;92755.78;2116458;27;20061;-82
2021/05/18 00:59:55;;;;;;;2.40;0.60;;;;;;;5.58;95.66;92755.72;2111235;28;19908;-84
2021/05/18 01:01:03;;;;;;;4.50;1.05;;;;;;;5.52;96.09;92761.44;2097940;28;20033;-83
2021/05/18 01:02:04;;;;;;;2.90;0.60;;;;;;;5.51;97.84;92764.47;2098876;28;20070;-83
2021/05/18 01:03:05;;;;;;;2.22;0.70;;;;;;;5.46;98.37;92770.22;2099821;28;20510;-84
2021/05/18 01:04:12;;;;;;;1.10;0.70;;;;;;;5.56;96.89;92770.09;2101750;28;20046;-83
2021/05/18 01:05:20;;;;;;;2.78;0.80;;;;;;;5.50;96.68;92773.59;2108227;27;20048;-84
2021/05/18 01:07:25;;;;;;;1.73;0.80;;;;;;;5.39;97.31;92768.34;2115299;27;20152;-83
2021/05/18 01:08:25;;;;;;;1.85;0.80;;;;;;;5.38;98.61;92769.50;2098103;28;20032;-83
2021/05/18 01:09:26;;;;;;;2.10;0.80;;;;;;;5.35;98.53;92762.31;2109710;28;20027;-84
2021/05/18 01:10:27;;;;;;;2.05;0.70;;;;;;;5.41;98.42;92760.03;2101481;28;20023;-83
2021/05/18 01:11:30;;;;;;;4.93;1.10;;;;;;;5.41;98.89;92768.72;2098050;28;20132;-82
2021/05/18 01:12:30;;;;;;;1.88;0.70;;;;;;;5.40;98.80;92761.94;2106077;28;20381;-84
2021/05/18 01:13:34;;;;;;;3.22;0.70;;;;;;;5.42;97.82;92766.84;2105865;28;20028;-84
2021/05/18 01:14:34;;;;;;;2.78;0.65;;;;;;;5.39;98.72;92760.41;2105331;28;20027;-84
2021/05/18 01:15:38;;;;;;;1.88;0.80;;;;;;;5.35;98.68;92761.56;2104080;28;20094;-85
2021/05/18 01:16:43;;;;;;;3.22;0.70;;;;;;;5.38;99.16;92758.91;2098782;28;20021;-83
2021/05/18 01:17:44;;;;;;;4.75;0.70;;;;;;;5.42;98.68;92762.28;2110211;27;20019;-84
2021/05/18 01:18:47;;;;;;;1.08;0.80;;;;;;;5.32;99.23;92757.06;2100511;28;20485;-83
2021/05/18 01:19:49;;;;;;;1.38;0.70;;;;;;;5.39;98.36;92763.06;2100532;28;20103;-84
2021/05/18 01:20:57;;;;;;;1.38;0.75;;;;;;;5.61;96.46;92758.31;2110005;28;20028;-84
2021/05/18 01:22:00;;;;;;;1.33;0.70;;;;;;;5.54;96.98;92764.47;2106252;28;20081;-83
2021/05/18 01:23:01;;;;;;;2.72;0.80;;;;;;;5.67;96.11;92759.44;2108349;28;20469;-83
2021/05/18 01:24:04;;;;;;;2.10;0.63;;;;;;;5.63;95.85;92756.06;2095577;28;20051;-84
2021/05/18 01:25:06;;;;;;;1.30;0.70;;;;;;;5.63;95.70;92757.94;2106239;28;20031;-84
2021/05/18 01:26:07;;;;;;;0.85;0.60;;;;;;;5.66;97.10;92759.81;2100906;28;20022;-84
2021/05/18 01:27:08;;;;;;;2.22;0.70;;;;;;;5.55;97.27;92763.31;2096539;28;20114;-83
2021/05/18 01:28:09;;;;;;;1.42;0.80;;;;;;;5.56;98.18;92762.16;2096235;28;20025;-84
2021/05/18 01:29:10;;;;;;;2.05;0.88;;;;;;;5.53;98.36;92762.19;2104052;28;20038;-83
2021/05/18 01:30:12;;;;;;;1.45;0.70;;;;;;;5.50;98.58;92758.44;2114094;27;20024;-83
2021/05/18 01:31:21;;;;;;;1.25;0.63;;;;;;;5.49;99.31;92764.88;2110456;27;20430;-84
2021/05/18 01:32:24;;;;;;;1.20;0.80;;;;;;;5.47;99.65;92761.84;2108037;28;20116;-84
2021/05/18 01:33:25;;;;;;;3.47;0.90;;;;;;;5.50;99.88;92758.44;2111380;28;20119;-83
2021/05/18 01:34:26;;;;;;;0.98;0.73;;;;;;;5.48;100.00;92765.25;2100154;28;20044;-83
2021/05/18 01:35:29;;;;;;;4.20;0.70;;;;;;;5.46;100.00;92765.66;2100322;28;20096;-84
2021/05/18 01:36:35;;;;;;;2.45;0.88;;;;;;;5.45;100.00;92766.81;2102980;28;20492;-83
2021/05/18 01:37:37;;;;;;;1.35;0.70;;;;;;;5.43;100.00;92763.03;2109957;28;20028;-83
2021/05/18 01:38:44;;;;;;;1.27;0.60;;;;;;;5.54;100.00;92761.81;2116742;27;20026;-84
2021/05/18 01:39:56;;;;;;;1.85;0.52;;;;;;;5.52;100.00;92761.44;2118966;27;20051;-83
2021/05/18 01:43:35;;;;;;;1.33;0.60;;;;;;;5.57;100.00;92770.84;2110577;27;20430;-85
2021/05/18 01:44:37;;;;;;;1.40;0.88;;;;;;;5.50;100.00;92763.72;2114124;27;20422;-83
2021/05/18 01:45:39;;;;;;;2.45;0.70;;;;;;;5.55;100.00;92767.84;2106857;28;20492;-84
2021/05/18 01:46:43;;;;;;;1.80;0.80;;;;;;;5.55;100.00;92771.25;2108656;28;20381;-83
2021/05/18 01:47:53;;;;;;;2.85;0.65;;;;;;;5.54;100.00;92769.00;2108514;28;20027;-84
2021/05/18 01:48:59;;;;;;;0.95;0.68;;;;;;;5.54;100.00;92769.00;2101438;28;20062;-83
2021/05/18 01:50:01;;;;;;;3.90;0.60;;;;;;;5.63;100.00;92771.97;2111043;28;20118;-83
2021/05/18 01:51:02;;;;;;;2.88;0.80;;;;;;;5.64;100.00;92775.34;2109992;28;20035;-83
2021/05/18 01:52:04;;;;;;;2.72;0.70;;;;;;;5.61;100.00;92773.47;2099261;28;20514;-84
2021/05/18 01:53:08;;;;;;;1.52;0.60;;;;;;;5.70;100.00;92784.38;2106657;28;20465;-83
2021/05/18 01:54:19;;;;;;;2.80;0.75;;;;;;;5.71;100.00;92775.31;2114624;28;20053;-84
2021/05/18 01:55:28;;;;;;;2.30;0.68;;;;;;;5.69;100.00;92781.00;2110916;28;20024;-84
2021/05/18 01:56:43;;;;;;;0.47;0.47;;;;;;;5.63;100.00;92781.81;2092214;28;20037;-83
2021/05/18 01:57:44;;;;;;;3.65;0.82;;;;;;;5.72;100.00;92774.91;2092969;28;20030;-85
2021/05/18 01:58:45;;;;;;;1.60;0.60;;;;;;;5.71;100.00;92784.00;2107290;28;20024;-84
2021/05/18 01:59:47;;;;;;;1.00;0.70;;;;;;;5.70;100.00;92781.72;2122706;27;20029;-84
2021/05/18 02:00:49;;;;;;;1.48;0.70;;;;;;;5.65;100.00;92779.50;2113278;28;20027;-84
2021/05/18 02:01:53;;;;;;;2.75;0.70;;;;;;;5.62;100.00;92783.72;2097723;28;20090;-85
2021/05/18 02:02:55;;;;;;;3.60;0.65;;;;;;;5.62;100.00;92793.53;2094543;28;20020;-84
2021/05/18 02:05:15;;;;;;;;;;;;;;;5.54;100.00;92785.66;2148724;27;20121;-82
2021/05/18 02:06:16;;;;;;;2.78;0.60;;;;;;;5.51;100.00;92775.84;2130028;27;19984;-85
2021/05/18 02:07:31;;;;;;;3.00;0.70;;;;;;;5.53;100.00;92781.50;2112972;28;20053;-85
2021/05/18 02:08:32;;;;;;;0.60;0.60;;;;;;;5.59;100.00;92789.03;2121826;27;20033;-84
2021/05/18 02:09:33;;;;;;;1.83;0.70;;;;;;;5.60;100.00;92782.59;2117240;28;20042;-84
2021/05/18 02:10:34;;;;;;;0.82;0.60;;;;;;;5.68;100.00;92784.03;2129499;27;20019;-85
2021/05/18 02:11:35;;;;;;;0.90;0.52;;;;;;;5.62;100.00;92789.03;2119611;28;20023;-84
2021/05/18 02:12:36;;;;;;;1.52;0.55;;;;;;;5.58;100.00;92784.91;2105516;28;20047;-85
2021/05/18 02:13:42;;;;;;;0.70;0.60;;;;;;;5.54;100.00;92790.97;2121403;27;20030;-84
2021/05/18 02:14:46;;;;;;;0.40;0.40;;;;;;;5.68;100.00;92787.44;2122350;27;20023;-84
2021/05/18 02:15:57;;;;;;;2.47;0.57;;;;;;;5.55;100.00;92784.50;2113433;28;20055;-83
2021/05/18 02:17:10;;;;;;;0.43;0.40;;;;;;;5.56;100.00;92788.66;2124363;27;20024;-85
2021/05/18 02:20:37;;;;;;;2.17;0.50;;;;;;;5.60;100.00;92793.19;2130108;27;20030;-84
2021/05/18 02:25:10;;;;;;;3.53;0.50;;;;;;;5.51;100.00;92791.00;2123994;27;20562;-84
2021/05/18 02:26:10;;;;;;;1.23;0.60;;;;;;;5.40;100.00;92790.31;2121919;27;20019;-84
2021/05/18 02:27:11;;;;;;;1.08;0.50;;;;;;;5.37;100.00;92791.84;2115626;28;20054;-86
2021/05/18 02:28:12;;;;;;;2.67;0.55;;;;;;;5.36;100.00;92790.34;2118927;28;20030;-83
2021/05/18 02:29:12;;;;;;;0.40;0.40;;;;;;;5.29;100.00;92791.16;2117132;28;20038;-84
2021/05/18 02:30:14;;;;;;;2.75;0.63;;;;;;;5.29;100.00;92790.41;2115454;28;20027;-85
2021/05/18 02:31:16;;;;;;;0.52;0.40;;;;;;;5.25;100.00;92792.31;2127376;27;20067;-84
2021/05/18 02:32:17;;;;;;;1.02;0.38;;;;;;;5.25;100.00;92794.97;2139886;27;20010;-85
2021/05/18 02:33:18;;;;;;;2.88;0.60;;;;;;;5.20;100.00;92785.53;2135832;27;20084;-84
2021/05/18 02:34:18;;;;;;;0.75;0.47;;;;;;;5.20;100.00;92787.44;2127687;27;20495;-84
2021/05/18 02:35:20;;;;;;;0.40;0.40;;;;;;;5.20;100.00;92784.78;2128727;27;20138;-85
2021/05/18 02:36:23;;;;;;;1.63;0.50;;;;;;;5.22;100.00;92785.91;2121634;27;20030;-84
2021/05/18 02:37:25;;;;;;;0.38;0.30;;;;;;;5.25;100.00;92790.41;2138110;27;20018;-85
2021/05/18 02:38:25;;;;;;;0.70;0.40;;;;;;;5.24;100.00;92785.53;2132644;27;20105;-85
2021/05/18 02:39:26;;;;;;;1.20;0.52;;;;;;;5.33;100.00;92791.13;2135412;27;20027;-83
2021/05/18 02:40:29;;;;;;;1.38;0.50;;;;;;;5.26;100.00;92791.16;2130167;27;20552;-84
2021/05/18 02:41:30;;;;;;;0.47;0.47;;;;;;;5.20;100.00;92798.03;2121620;27;20084;-84
2021/05/18 02:42:31;;;;;;;0.50;0.40;;;;;;;5.18;100.00;92789.72;2121296;28;20015;-85
2021/05/18 02:43:40;;;;;;;0.45;0.45;;;;;;;5.22;100.00;92790.44;2115254;28;20032;-84
2021/05/18 02:44:48;;;;;;;1.13;0.38;;;;;;;5.19;100.00;92796.53;2122636;27;20027;-84
2021/05/18 02:49:43;;;;;;;0.40;0.40;;;;;;;5.10;100.00;92796.22;2124636;27;20027;-84
2021/05/18 02:50:45;;;;;;;1.38;0.50;;;;;;;5.07;100.00;92794.34;2112756;28;20026;-85
2021/05/18 02:51:47;;;;;;;0.50;0.38;;;;;;;5.05;100.00;92803.44;2118993;27;20019;-84
2021/05/18 02:52:48;;;;;;;1.05;0.63;;;;;;;5.13;100.00;92798.06;2127987;27;20023;-84
2021/05/18 02:53:48;;;;;;;0.88;0.60;;;;;;;5.01;100.00;92797.41;2134543;27;20025;-84
2021/05/18 02:54:53;;;;;;;2.78;0.63;;;;;;;5.05;100.00;92792.84;2121296;28;20027;-84
2021/05/18 02:57:04;;;;;;;0.60;0.60;;;;;;;5.04;100.00;92793.97;2125354;27;20044;-84
2021/05/18 02:58:07;;;;;;;0.73;0.60;;;;;;;5.01;100.00;92792.09;2129901;27;20105;-84
2021/05/18 02:59:18;;;;;;;1.63;0.50;;;;;;;5.04;100.00;92793.22;2123210;27;20094;-85
2021/05/18 03:00:23;;;;;;;1.75;1.00;;;;;;;5.09;100.00;92790.13;2117825;28;20020;-84
2021/05/18 03:01:23;;;;;;;0.73;0.73;;;;;;;4.97;100.00;92799.31;2117681;27;20026;-83
2021/05/18 03:02:24;;;;;;;1.88;0.60;;;;;;;4.98;100.00;92786.81;2113880;28;20110;-83
2021/05/18 03:03:25;;;;;;;1.52;0.63;;;;;;;4.94;100.00;92797.44;2112576;28;20411;-84
2021/05/18 03:04:27;;;;;;;1.75;0.80;;;;;;;4.87;100.00;92794.81;2115505;28;20015;-85
2021/05/18 03:05:28;;;;;;;0.55;0.43;;;;;;;4.86;100.00;92790.66;2116498;28;20055;-84
2021/05/18 03:06:28;;;;;;;2.05;0.70;;;;;;;4.77;100.00;92795.63;2111254;28;20031;-83
2021/05/18 03:07:29;;;;;;;2.15;0.50;;;;;;;4.74;100.00;92799.03;2121209;27;20021;-84
2021/05/18 03:08:36;;;;;;;0.85;0.55;;;;;;;4.76;100.00;92799.44;2121907;27;20111;-84
2021/05/18 03:09:37;;;;;;;0.65;0.50;;;;;;;4.73;100.00;92808.13;2121116;28;20408;-85
2021/05/18 03:10:38;;;;;;;0.98;0.75;;;;;;;4.69;100.00;92799.44;2128161;27;20114;-84
2021/05/18 03:11:41;;;;;;;1.85;0.50;;;;;;;4.68;100.00;92800.59;2113922;27;20028;-84
2021/05/18 03:12:42;;;;;;;3.25;0.50;;;;;;;4.69;100.00;92807.38;2123518;27;20064;-84
2021/05/18 03:13:43;;;;;;;1.75;0.50;;;;;;;4.70;100.00;92809.66;2120851;27;20894;-84
2021/05/18 03:14:44;;;;;;;0.45;0.45;;;;;;;4.74;100.00;92805.13;2112969;28;20106;-84
2021/05/18 03:15:44;;;;;;;1.55;0.40;;;;;;;4.78;100.00;92808.50;2112512;28;20031;-84
2021/05/18 03:16:47;;;;;;;1.17;0.52;;;;;;;4.79;100.00;92803.97;2106435;28;20019;-84
2021/05/18 03:17:48;;;;;;;0.93;0.80;;;;;;;4.90;100.00;92806.53;2102049;27;20083;-85
2021/05/18 03:18:49;;;;;;;0.50;0.50;;;;;;;4.88;100.00;92806.19;2107231;28;20035;-84
2021/05/18 03:19:50;;;;;;;0.43;0.40;;;;;;;4.88;100.00;92803.53;2124050;27;20083;-85
2021/05/18 03:20:50;;;;;;;1.30;0.43;;;;;;;4.92;100.00;92804.28;2117397;27;20066;-85
2021/05/18 03:21:51;;;;;;;1.40;0.50;;;;;;;4.87;100.00;92802.75;2101909;28;20024;-84
2021/05/18 03:22:53;;;;;;;0.57;0.55;;;;;;;4.93;100.00;92790.63;2109892;28;20464;-84
2021/05/18 03:23:54;;;;;;;0.50;0.50;;;;;;;4.88;100.00;92793.69;2115988;27;20036;-84
2021/05/18 03:24:55;;;;;;;0.52;0.35;;;;;;;4.93;100.00;92793.28;2121814;27;20020;-85
2021/05/18 03:25:56;;;;;;;1.50;0.52;;;;;;;4.96;100.00;92791.72;2123976;27;20031;-85
2021/05/18 03:26:56;;;;;;;0.98;0.50;;;;;;;4.98;100.00;92792.13;2107065;28;20028;-84
2021/05/18 03:27:58;;;;;;;0.45;0.45;;;;;;;4.97;100.00;92790.63;2111471;28;20051;-84
2021/05/18 03:29:02;;;;;;;0.88;0.50;;;;;;;4.97;100.00;92793.25;2098233;28;20027;-84
2021/05/18 03:30:44;;;;;;;1.13;0.43;;;;;;;5.00;100.00;92793.25;2097256;28;20024;-85
2021/05/18 03:34:38;;;;;;;1.05;0.40;;;;;;;4.96;100.00;92795.16;2118633;27;20102;-85
2021/05/18 03:35:39;;;;;;;0.88;0.38;;;;;;;5.01;100.00;92800.06;2117039;27;20095;-84
2021/05/18 03:36:40;;;;;;;0.60;0.60;;;;;;;5.03;100.00;92797.00;2113715;28;20432;-84
2021/05/18 03:37:52;;;;;;;0.88;0.80;;;;;;;4.96;100.00;92799.69;2120983;27;20031;-85
2021/05/18 03:38:56;;;;;;;0.85;0.45;;;;;;;4.96;100.00;92803.09;2116512;27;20035;-85
2021/05/18 03:40:05;;;;;;;2.28;0.50;;;;;;;4.97;100.00;92798.56;2104133;28;20397;-84
2021/05/18 03:41:17;;;;;;;0.38;0.38;;;;;;;4.96;100.00;92802.34;2116359;27;20024;-84
2021/05/18 03:42:23;;;;;;;0.93;0.50;;;;;;;4.96;100.00;92802.34;2115714;27;20784;-84
2021/05/18 03:44:42;;;;;;;0.90;0.55;;;;;;;4.97;100.00;92799.31;2109275;27;20047;-84
2021/05/18 03:45:50;;;;;;;0.47;0.47;;;;;;;5.08;100.00;92807.19;2120153;27;20027;-84
2021/05/18 04:03:45;;;;;;;1.75;0.60;;;;;;;5.39;100.00;92817.97;2118765;27;20026;-85
2021/05/18 04:04:25;;;;;;;1.63;0.40;;;;;;;5.34;100.00;92818.38;2110461;27;20076;-84
2021/05/18 04:12:53;;;;;;;1.95;0.50;;;;;;;5.41;100.00;92819.09;2115024;28;20019;-84
2021/05/18 04:18:37;;;;;;;12.23;9.25;;;;;;;5.02;100.00;92828.03;2117765;27;19958;-84
2021/05/18 04:19:14;;;;;;;3.88;3.45;;;;;;;5.06;100.00;92833.31;2114312;27;20577;-83
2021/05/18 04:38:54;;;;;;;1.48;0.75;;;;;;;5.08;100.00;92840.88;2123062;27;20055;-83
2021/05/18 04:40:35;;;;;;;1.50;0.80;;;;;;;5.10;100.00;92841.25;2117220;27;20472;-83
2021/05/18 04:48:17;;;;;;;1.30;0.85;;;;;;;5.25;100.00;92843.41;2084498;28;20025;-84
2021/05/18 04:51:46;;;;;;;1.10;1.00;;;;;;;5.19;100.00;92846.88;2116344;27;20056;-83
2021/05/18 04:53:03;;;;;;;1.15;1.08;;;;;;;5.28;100.00;92852.50;2100689;28;20568;-84
2021/05/18 05:00:06;;;;;;;0.77;0.75;;;;;;;5.21;100.00;92863.13;2118140;27;20020;-84
2021/05/18 05:01:14;;;;;;;0.80;0.80;;;;;;;5.19;100.00;92860.13;2112221;28;20026;-83
2021/05/18 05:06:42;;;;;;;0.85;0.50;;;;;;;5.29;100.00;92854.75;2084652;28;20115;-83
2021/05/18 05:07:54;;;;;;;1.20;0.90;;;;;;;5.44;100.00;92852.75;2111872;28;20501;-83
2021/05/18 05:09:59;;;;;;;0.70;0.70;;;;;;;5.46;100.00;92858.44;2112744;28;20083;-83
2021/05/18 05:12:34;;;;;;;1.15;1.08;;;;;;;5.50;100.00;92867.13;2121943;27;20076;-84
2021/05/18 05:14:54;;;;;;;1.85;0.65;;;;;;;5.54;100.00;92867.84;2119354;27;20102;-84
2021/05/18 05:15:55;;;;;;;0.50;0.50;;;;;;;5.61;100.00;92861.72;2108750;28;20027;-84
2021/05/18 05:16:56;;;;;;;1.52;0.77;;;;;;;5.66;100.00;92857.91;2111757;28;20023;-85
2021/05/18 05:17:57;;;;;;;3.03;1.45;;;;;;;5.66;100.00;92863.97;2109553;28;20144;-85
2021/05/18 05:18:58;;;;;;;2.08;1.20;;;;;;;5.64;100.00;92863.59;2102240;28;20024;-84
2021/05/18 05:19:58;;;;;;;1.30;1.20;;;;;;;5.70;100.00;92864.69;2091029;28;20074;-84
2021/05/18 05:20:59;;;;;;;0.90;0.90;;;;;;;5.69;100.00;92865.84;2108329;28;20031;-83
2021/05/18 05:22:01;;;;;;;0.70;0.70;;;;;;;5.78;100.00;92860.09;2117957;27;20455;-84
2021/05/18 05:23:03;;;;;;;1.10;1.00;;;;;;;5.87;100.00;92860.41;2111840;28;20024;-83
2021/05/18 05:24:04;;;;;;;1.08;1.00;;;;;;;5.89;100.00;92863.41;2107597;28;20016;-84
2021/05/18 05:25:05;;;;;;;1.95;0.70;;;;;;;5.96;100.00;92857.31;2118919;27;20069;-85
2021/05/18 05:26:06;;;;;;;0.90;0.90;;;;;;;6.03;100.00;92865.22;2122546;27;20019;-83
2021/05/18 05:27:07;;;;;;;1.20;1.08;;;;;;;6.02;100.00;92859.16;2105625;28;20102;-82
2021/05/18 05:28:08;;;;;;;3.22;0.93;;;;;;;6.00;100.00;92864.09;2104551;28;20024;-82
2021/05/18 05:29:09;;;;;;;0.90;0.90;;;;;;;5.97;100.00;92864.13;2114117;28;20020;-83
2021/05/18 05:30:10;;;;;;;0.93;0.93;;;;;;;5.96;100.00;92865.28;2105706;28;20034;-84
2021/05/18 05:31:11;;;;;;;2.28;0.80;;;;;;;5.90;100.00;92854.31;2097489;28;20024;-84
2021/05/18 05:32:11;;;;;;;0.98;0.60;;;;;;;5.92;100.00;92865.31;2097532;28;20043;-84
2021/05/18 05:33:13;;;;;;;0.60;0.60;;;;;;;5.90;100.00;92864.91;2090424;28;20021;-82
2021/05/18 05:34:15;;;;;;;2.63;2.33;;;;;;;5.95;100.00;92863.78;2101458;28;20028;-82
2021/05/18 05:35:16;;;;;;;0.80;0.55;;;;;;;5.95;100.00;92867.19;2122439;27;20459;-84
2021/05/18 05:36:16;;;;;;;2.30;0.75;;;;;;;5.99;100.00;92865.25;2106998;28;20111;-84
2021/05/18 05:37:17;;;;;;;1.27;0.60;;;;;;;5.84;100.00;92868.38;2097188;28;20016;-85
2021/05/18 05:38:20;;;;;;;0.20;0.20;;;;;;;5.98;100.00;92869.06;2097526;28;20031;-84
2021/05/18 05:39:24;;;;;;;0.20;0.20;;;;;;;6.21;100.00;92865.81;2105627;28;20118;-82
2021/05/18 05:40:25;;;;;;;0.80;0.63;;;;;;;6.24;100.00;92867.69;2106086;28;20051;-83
2021/05/18 05:41:25;;;;;;;0.65;0.60;;;;;;;6.34;100.00;92862.66;2107317;28;20055;-84
2021/05/18 05:42:27;;;;;;;0.30;0.30;;;;;;;6.46;100.00;92867.47;2107611;28;20027;-85
2021/05/18 05:43:28;;;;;;;1.15;1.13;;;;;;;6.54;100.00;92872.31;2107256;28;20031;-83
2021/05/18 05:44:29;;;;;;;0.40;0.35;;;;;;;6.50;100.00;92873.50;2106734;28;20051;-84
2021/05/18 05:45:30;;;;;;;1.67;0.80;;;;;;;6.52;100.00;92882.56;2116471;27;20027;-83
2021/05/18 05:46:31;;;;;;;1.65;1.55;;;;;;;6.48;100.00;92875.78;2107514;28;20575;-84
2021/05/18 05:47:32;;;;;;;1.75;1.08;;;;;;;6.45;100.00;92881.88;2106851;28;20111;-84
2021/05/18 05:48:33;;;;;;;1.73;0.70;;;;;;;6.41;100.00;92889.91;2105701;28;20071;-84
2021/05/18 05:49:33;;;;;;;0.40;0.30;;;;;;;6.36;100.00;92892.97;2114900;27;20020;-84
2021/05/18 05:50:34;;;;;;;1.02;0.77;;;;;;;6.36;100.00;92882.34;2100859;28;20024;-84
2021/05/18 05:51:35;;;;;;;0.52;0.40;;;;;;;6.35;100.00;92888.06;2110531;28;20403;-85
2021/05/18 05:52:36;;;;;;;2.13;1.33;;;;;;;6.28;100.00;92892.28;2111785;28;20112;-84
2021/05/18 05:53:37;;;;;;;1.40;1.30;;;;;;;6.27;100.00;92887.38;2111585;28;20023;-83
2021/05/18 05:54:38;;;;;;;1.20;1.10;;;;;;;6.35;100.00;92902.09;2122354;28;20038;-83
2021/05/18 05:55:38;;;;;;;1.10;0.30;;;;;;;6.36;100.00;92897.53;2118690;27;20075;-84
2021/05/18 05:56:39;;;;;;;2.90;0.30;;;;;;;6.46;100.00;92904.66;2104585;28;20051;-84
2021/05/18 05:57:40;;;;;;;2.97;0.50;;;;;;;6.41;100.00;92908.50;2097515;28;20111;-84
2021/05/18 05:58:41;;;;;;;2.30;0.40;;;;;;;6.14;100.00;92918.94;2105593;28;20055;-85
2021/05/18 05:59:41;;;;;;;0.68;0.40;;;;;;;6.23;100.00;92915.84;2106540;28;20392;-84
2021/05/18 06:00:42;;;;;;;2.13;0.50;;;;;;;6.22;100.00;92919.63;2111636;28;20070;-83
2021/05/18 06:01:43;;;;;;;1.27;0.50;;;;;;;6.10;100.00;92914.81;2114287;28;20020;-84
2021/05/18 06:02:44;;;;;;;1.77;0.50;;;;;;;5.90;99.78;92915.31;2118909;28;20132;-84
2021/05/18 06:03:45;;;;;;;4.97;0.60;;;;;;;5.87;100.00;92921.41;2117758;28;20029;-83
2021/05/18 06:04:46;;;;;;;0.57;0.40;;;;;;;5.90;100.00;92915.31;2114185;28;20605;-83
2021/05/18 06:05:47;;;;;;;1.08;0.40;;;;;;;5.82;100.00;92916.50;2103743;28;20046;-85
2021/05/18 06:06:47;;;;;;;3.00;0.82;;;;;;;5.64;97.00;92913.97;2110826;28;20023;-84
2021/05/18 06:07:48;;;;;;;0.60;0.50;;;;;;;5.64;100.00;92919.28;2105133;28;20043;-84
2021/05/18 06:08:49;;;;;;;2.88;0.80;;;;;;;5.53;100.00;92919.38;2096779;28;20036;-84
2021/05/18 06:09:55;;;;;;;2.53;0.68;;;;;;;5.50;100.00;92919.38;2097066;28;20020;-84
2021/05/18 06:11:07;;;;;;;2.70;0.60;;;;;;;5.29;100.00;92918.34;2096830;28;20495;-84
2021/05/18 06:12:31;;;;;;;4.75;0.70;;;;;;;5.40;100.00;92923.59;2112328;28;20020;-83
2021/05/18 06:14:20;;;;;;;1.85;0.70;;;;;;;5.14;100.00;92924.13;2113391;28;20035;-84
2021/05/18 06:16:40;;;;;;;6.85;0.80;;;;;;;5.06;100.00;92926.03;2117639;28;20691;-83
2021/05/18 06:41:12;;;;;;;1.40;1.30;;;;;;;5.93;100.00;92954.38;2112314;28;20042;-84
2021/05/18 06:47:31;;;;;;;1.02;0.70;;;;;;;5.60;100.00;92950.38;2108147;28;20437;-85
2021/05/18 06:48:32;;;;;;;1.85;0.50;;;;;;;5.80;100.00;92955.94;2115240;28;20513;-84
2021/05/18 06:49:37;;;;;;;0.77;0.60;;;;;;;5.76;100.00;92960.50;2107769;28;20023;-86
2021/05/18 06:50:38;;;;;;;0.90;0.60;;;;;;;5.89;100.00;92955.50;2106933;28;20019;-85
2021/05/18 06:51:39;;;;;;;1.80;0.60;;;;;;;5.80;100.00;92954.03;2102088;28;20031;-84
2021/05/18 06:52:44;;;;;;;7.20;0.70;;;;;;;5.87;100.00;92949.81;2103934;28;20563;-84
2021/05/18 06:53:45;;;;;;;3.92;0.73;;;;;;;5.93;100.00;92957.03;2109047;28;20039;-85
2021/05/18 06:54:46;;;;;;;3.03;0.98;;;;;;;5.99;100.00;92958.09;2101336;28;20111;-85
2021/05/18 06:55:49;;;;;;;1.20;0.60;;;;;;;6.05;100.00;92950.47;2110226;28;20039;-84
2021/05/18 06:56:53;;;;;;;1.98;0.63;;;;;;;5.99;97.58;92952.03;2096040;28;20528;-85
2021/05/18 06:58:03;;;;;;;3.25;0.63;;;;;;;5.92;100.00;92950.19;2110893;28;20024;-82
2021/05/18 07:00:13;;;;;;;1.50;1.38;;;;;;;5.88;100.00;92959.28;2110610;28;19923;-83
2021/05/18 07:01:13;;;;;;;2.58;0.63;;;;;;;5.84;100.00;92961.97;2111012;28;20200;-85
2021/05/18 07:02:14;;;;;;;3.97;0.77;;;;;;;5.83;100.00;92947.19;2101087;28;20511;-85
2021/05/18 07:03:18;;;;;;;3.35;0.82;;;;;;;5.86;100.00;92954.38;2096575;28;20058;-85
2021/05/18 07:04:19;;;;;;;1.70;0.80;;;;;;;5.80;100.00;92948.00;2105411;28;20024;-85
2021/05/18 07:05:29;;;;;;;1.63;0.70;;;;;;;5.86;100.00;92949.06;2102703;28;20057;-84